sensor_id;sensor_type;location;lat;lon;timestamp;temperature;humidity
32296;DHT22;18781;51.550;5.418;2023-04-06T00:00:36;7.90;49.50
32296;DHT22;18781;51.550;5.418;2023-04-06T00:03:02;7.90;49.70
32296;DHT22;18781;51.550;5.418;2023-04-06T00:05:28;7.80;49.70
32296;DHT22;18781;51.550;5.418;2023-04-06T00:07:57;7.80;49.70
32296;DHT22;18781;51.550;5.418;2023-04-06T00:10:22;7.80;49.70
32296;DHT22;18781;51.550;5.418;2023-04-06T00:12:48;7.80;49.70
32296;DHT22;18781;51.550;5.418;2023-04-06T00:15:13;7.80;49.70
32296;DHT22;18781;51.550;5.418;2023-04-06T00:17:40;7.80;49.80
32296;DHT22;18781;51.550;5.418;2023-04-06T00:20:06;7.70;49.70
32296;DHT22;18781;51.550;5.418;2023-04-06T00:22:32;7.70;49.50
32296;DHT22;18781;51.550;5.418;2023-04-06T00:24:58;7.70;49.60
32296;DHT22;18781;51.550;5.418;2023-04-06T00:27:23;7.70;49.80
32296;DHT22;18781;51.550;5.418;2023-04-06T00:29:49;7.60;49.70
32296;DHT22;18781;51.550;5.418;2023-04-06T00:32:15;7.60;49.80
32296;DHT22;18781;51.550;5.418;2023-04-06T00:34:41;7.60;50.00
32296;DHT22;18781;51.550;5.418;2023-04-06T00:37:06;7.60;50.00
32296;DHT22;18781;51.550;5.418;2023-04-06T00:39:32;7.60;50.10
32296;DHT22;18781;51.550;5.418;2023-04-06T00:41:58;7.60;50.00
32296;DHT22;18781;51.550;5.418;2023-04-06T00:44:24;7.60;50.00
32296;DHT22;18781;51.550;5.418;2023-04-06T00:46:50;7.50;50.10
32296;DHT22;18781;51.550;5.418;2023-04-06T00:49:15;7.50;50.00
32296;DHT22;18781;51.550;5.418;2023-04-06T00:51:41;7.50;50.00
32296;DHT22;18781;51.550;5.418;2023-04-06T00:54:07;7.50;49.90
32296;DHT22;18781;51.550;5.418;2023-04-06T00:56:32;7.50;49.90
32296;DHT22;18781;51.550;5.418;2023-04-06T00:58:58;7.50;49.90
32296;DHT22;18781;51.550;5.418;2023-04-06T01:01:24;7.50;50.10
32296;DHT22;18781;51.550;5.418;2023-04-06T01:03:50;7.50;50.00
32296;DHT22;18781;51.550;5.418;2023-04-06T01:06:16;7.40;50.00
32296;DHT22;18781;51.550;5.418;2023-04-06T01:08:42;7.40;50.10
32296;DHT22;18781;51.550;5.418;2023-04-06T01:11:08;7.40;50.20
32296;DHT22;18781;51.550;5.418;2023-04-06T01:13:33;7.40;50.20
32296;DHT22;18781;51.550;5.418;2023-04-06T01:15:59;7.40;49.90
32296;DHT22;18781;51.550;5.418;2023-04-06T01:18:28;7.40;50.10
32296;DHT22;18781;51.550;5.418;2023-04-06T01:20:54;7.40;50.30
32296;DHT22;18781;51.550;5.418;2023-04-06T01:23:19;7.40;50.60
32296;DHT22;18781;51.550;5.418;2023-04-06T01:25:45;7.40;50.00
32296;DHT22;18781;51.550;5.418;2023-04-06T01:28:11;7.40;50.00
32296;DHT22;18781;51.550;5.418;2023-04-06T01:30:36;7.30;50.00
32296;DHT22;18781;51.550;5.418;2023-04-06T01:33:02;7.30;50.10
32296;DHT22;18781;51.550;5.418;2023-04-06T01:35:30;7.30;50.20
32296;DHT22;18781;51.550;5.418;2023-04-06T01:37:56;7.30;50.20
32296;DHT22;18781;51.550;5.418;2023-04-06T01:40:21;7.30;50.20
32296;DHT22;18781;51.550;5.418;2023-04-06T01:42:47;7.30;50.30
32296;DHT22;18781;51.550;5.418;2023-04-06T01:45:12;7.30;50.20
32296;DHT22;18781;51.550;5.418;2023-04-06T01:47:38;7.30;50.50
32296;DHT22;18781;51.550;5.418;2023-04-06T01:50:04;7.30;50.60
32296;DHT22;18781;51.550;5.418;2023-04-06T01:52:32;7.30;50.70
32296;DHT22;18781;51.550;5.418;2023-04-06T01:54:58;7.40;50.90
32296;DHT22;18781;51.550;5.418;2023-04-06T01:57:24;7.40;50.90
32296;DHT22;18781;51.550;5.418;2023-04-06T01:59:50;7.40;50.90
32296;DHT22;18781;51.550;5.418;2023-04-06T02:02:16;7.40;51.00
32296;DHT22;18781;51.550;5.418;2023-04-06T02:04:42;7.40;51.10
32296;DHT22;18781;51.550;5.418;2023-04-06T02:07:07;7.40;51.20
32296;DHT22;18781;51.550;5.418;2023-04-06T02:09:33;7.40;51.10
32296;DHT22;18781;51.550;5.418;2023-04-06T02:11:58;7.40;51.10
32296;DHT22;18781;51.550;5.418;2023-04-06T02:14:25;7.40;51.20
32296;DHT22;18781;51.550;5.418;2023-04-06T02:16:51;7.40;51.30
32296;DHT22;18781;51.550;5.418;2023-04-06T02:19:16;7.40;51.30
32296;DHT22;18781;51.550;5.418;2023-04-06T02:21:42;7.40;51.30
32296;DHT22;18781;51.550;5.418;2023-04-06T02:24:07;7.40;51.40
32296;DHT22;18781;51.550;5.418;2023-04-06T02:26:33;7.40;51.40
32296;DHT22;18781;51.550;5.418;2023-04-06T02:28:59;7.40;51.40
32296;DHT22;18781;51.550;5.418;2023-04-06T02:31:24;7.40;51.40
32296;DHT22;18781;51.550;5.418;2023-04-06T02:33:50;7.50;51.50
32296;DHT22;18781;51.550;5.418;2023-04-06T02:36:16;7.50;51.60
32296;DHT22;18781;51.550;5.418;2023-04-06T02:38:41;7.50;51.70
32296;DHT22;18781;51.550;5.418;2023-04-06T02:41:07;7.50;51.60
32296;DHT22;18781;51.550;5.418;2023-04-06T02:43:33;7.50;51.80
32296;DHT22;18781;51.550;5.418;2023-04-06T02:45:58;7.50;51.70
32296;DHT22;18781;51.550;5.418;2023-04-06T02:48:24;7.50;51.70
32296;DHT22;18781;51.550;5.418;2023-04-06T02:50:50;7.50;51.90
32296;DHT22;18781;51.550;5.418;2023-04-06T02:53:15;7.50;51.80
32296;DHT22;18781;51.550;5.418;2023-04-06T02:55:41;7.50;51.70
32296;DHT22;18781;51.550;5.418;2023-04-06T02:58:06;7.60;51.80
32296;DHT22;18781;51.550;5.418;2023-04-06T03:00:32;7.60;51.70
32296;DHT22;18781;51.550;5.418;2023-04-06T03:02:57;7.60;51.60
32296;DHT22;18781;51.550;5.418;2023-04-06T03:05:23;7.60;51.60
32296;DHT22;18781;51.550;5.418;2023-04-06T03:07:49;7.60;51.70
32296;DHT22;18781;51.550;5.418;2023-04-06T03:10:14;7.60;51.80
32296;DHT22;18781;51.550;5.418;2023-04-06T03:12:40;7.60;51.80
32296;DHT22;18781;51.550;5.418;2023-04-06T03:15:07;7.70;51.90
32296;DHT22;18781;51.550;5.418;2023-04-06T03:17:33;7.60;52.00
32296;DHT22;18781;51.550;5.418;2023-04-06T03:19:58;7.70;52.00
32296;DHT22;18781;51.550;5.418;2023-04-06T03:22:24;7.70;51.90
32296;DHT22;18781;51.550;5.418;2023-04-06T03:24:50;7.70;52.40
32296;DHT22;18781;51.550;5.418;2023-04-06T03:27:15;7.70;52.40
32296;DHT22;18781;51.550;5.418;2023-04-06T03:29:41;7.70;52.00
32296;DHT22;18781;51.550;5.418;2023-04-06T03:32:06;7.80;52.00
32296;DHT22;18781;51.550;5.418;2023-04-06T03:34:32;7.80;52.10
32296;DHT22;18781;51.550;5.418;2023-04-06T03:36:57;7.80;52.00
32296;DHT22;18781;51.550;5.418;2023-04-06T03:39:23;7.80;52.00
32296;DHT22;18781;51.550;5.418;2023-04-06T03:41:49;7.80;51.90
32296;DHT22;18781;51.550;5.418;2023-04-06T03:44:14;7.80;52.30
32296;DHT22;18781;51.550;5.418;2023-04-06T03:46:40;7.80;51.80
32296;DHT22;18781;51.550;5.418;2023-04-06T03:49:05;7.80;51.80
32296;DHT22;18781;51.550;5.418;2023-04-06T03:51:31;7.80;51.90
32296;DHT22;18781;51.550;5.418;2023-04-06T03:53:57;7.80;52.00
32296;DHT22;18781;51.550;5.418;2023-04-06T03:56:22;7.90;52.10
32296;DHT22;18781;51.550;5.418;2023-04-06T03:58:48;7.80;52.20
32296;DHT22;18781;51.550;5.418;2023-04-06T04:01:19;7.80;52.30
32296;DHT22;18781;51.550;5.418;2023-04-06T04:03:44;7.90;52.50
32296;DHT22;18781;51.550;5.418;2023-04-06T04:06:10;7.90;52.30
32296;DHT22;18781;51.550;5.418;2023-04-06T04:08:36;7.80;52.30
32296;DHT22;18781;51.550;5.418;2023-04-06T04:11:01;7.90;52.40
32296;DHT22;18781;51.550;5.418;2023-04-06T04:13:27;7.90;52.40
32296;DHT22;18781;51.550;5.418;2023-04-06T04:15:53;7.80;52.40
32296;DHT22;18781;51.550;5.418;2023-04-06T04:18:19;7.80;52.50
32296;DHT22;18781;51.550;5.418;2023-04-06T04:20:45;7.80;52.60
32296;DHT22;18781;51.550;5.418;2023-04-06T04:23:11;7.80;52.60
32296;DHT22;18781;51.550;5.418;2023-04-06T04:25:36;7.80;52.90
32296;DHT22;18781;51.550;5.418;2023-04-06T04:28:02;7.80;52.20
32296;DHT22;18781;51.550;5.418;2023-04-06T04:30:28;7.90;52.20
32296;DHT22;18781;51.550;5.418;2023-04-06T04:32:54;7.80;52.10
32296;DHT22;18781;51.550;5.418;2023-04-06T04:35:19;7.80;52.00
32296;DHT22;18781;51.550;5.418;2023-04-06T04:37:45;7.90;51.90
32296;DHT22;18781;51.550;5.418;2023-04-06T04:40:11;7.90;51.90
32296;DHT22;18781;51.550;5.418;2023-04-06T04:42:37;7.90;51.80
32296;DHT22;18781;51.550;5.418;2023-04-06T04:45:03;7.90;51.80
32296;DHT22;18781;51.550;5.418;2023-04-06T04:47:28;7.90;51.70
32296;DHT22;18781;51.550;5.418;2023-04-06T04:49:54;7.90;51.70
32296;DHT22;18781;51.550;5.418;2023-04-06T04:52:20;7.90;51.80
32296;DHT22;18781;51.550;5.418;2023-04-06T04:54:45;7.90;51.80
32296;DHT22;18781;51.550;5.418;2023-04-06T04:57:12;7.90;51.80
32296;DHT22;18781;51.550;5.418;2023-04-06T04:59:38;7.90;51.80
32296;DHT22;18781;51.550;5.418;2023-04-06T05:02:03;7.90;51.80
32296;DHT22;18781;51.550;5.418;2023-04-06T05:04:29;8.00;52.00
32296;DHT22;18781;51.550;5.418;2023-04-06T05:07:08;8.00;52.70
32296;DHT22;18781;51.550;5.418;2023-04-06T05:09:34;8.00;52.80
32296;DHT22;18781;51.550;5.418;2023-04-06T05:12:00;8.00;52.30
32296;DHT22;18781;51.550;5.418;2023-04-06T05:14:26;8.00;52.00
32296;DHT22;18781;51.550;5.418;2023-04-06T05:16:52;8.00;52.30
32296;DHT22;18781;51.550;5.418;2023-04-06T05:19:18;8.00;52.30
32296;DHT22;18781;51.550;5.418;2023-04-06T05:21:43;8.00;52.30
32296;DHT22;18781;51.550;5.418;2023-04-06T05:24:09;8.00;52.40
32296;DHT22;18781;51.550;5.418;2023-04-06T05:26:35;8.00;52.50
32296;DHT22;18781;51.550;5.418;2023-04-06T05:29:01;8.00;52.60
32296;DHT22;18781;51.550;5.418;2023-04-06T05:31:26;8.00;52.60
32296;DHT22;18781;51.550;5.418;2023-04-06T05:33:52;8.00;52.70
32296;DHT22;18781;51.550;5.418;2023-04-06T05:36:18;8.10;52.80
32296;DHT22;18781;51.550;5.418;2023-04-06T05:38:44;8.10;52.80
32296;DHT22;18781;51.550;5.418;2023-04-06T05:41:09;8.10;52.80
32296;DHT22;18781;51.550;5.418;2023-04-06T05:43:36;8.10;52.80
32296;DHT22;18781;51.550;5.418;2023-04-06T05:46:01;8.10;53.00
32296;DHT22;18781;51.550;5.418;2023-04-06T05:48:27;8.10;53.00
32296;DHT22;18781;51.550;5.418;2023-04-06T05:50:53;8.10;53.00
32296;DHT22;18781;51.550;5.418;2023-04-06T05:53:18;8.10;53.10
32296;DHT22;18781;51.550;5.418;2023-04-06T05:55:46;8.20;53.10
32296;DHT22;18781;51.550;5.418;2023-04-06T05:58:12;8.20;53.20
32296;DHT22;18781;51.550;5.418;2023-04-06T06:00:37;8.20;53.10
32296;DHT22;18781;51.550;5.418;2023-04-06T06:03:03;8.20;53.10
32296;DHT22;18781;51.550;5.418;2023-04-06T06:05:29;8.20;53.00
32296;DHT22;18781;51.550;5.418;2023-04-06T06:07:55;8.20;52.90
32296;DHT22;18781;51.550;5.418;2023-04-06T06:10:21;8.20;52.80
32296;DHT22;18781;51.550;5.418;2023-04-06T06:12:46;8.30;52.70
32296;DHT22;18781;51.550;5.418;2023-04-06T06:15:12;8.30;52.80
32296;DHT22;18781;51.550;5.418;2023-04-06T06:17:38;8.30;52.70
32296;DHT22;18781;51.550;5.418;2023-04-06T06:20:08;8.30;52.80
32296;DHT22;18781;51.550;5.418;2023-04-06T06:22:33;8.40;52.90
32296;DHT22;18781;51.550;5.418;2023-04-06T06:24:59;8.40;52.90
32296;DHT22;18781;51.550;5.418;2023-04-06T06:27:25;8.40;52.90
32296;DHT22;18781;51.550;5.418;2023-04-06T06:29:51;8.40;53.10
32296;DHT22;18781;51.550;5.418;2023-04-06T06:32:18;8.40;52.90
32296;DHT22;18781;51.550;5.418;2023-04-06T06:34:43;8.50;52.80
32296;DHT22;18781;51.550;5.418;2023-04-06T06:37:09;8.50;52.70
32296;DHT22;18781;51.550;5.418;2023-04-06T06:39:34;8.60;52.70
32296;DHT22;18781;51.550;5.418;2023-04-06T06:42:00;8.60;52.60
32296;DHT22;18781;51.550;5.418;2023-04-06T06:44:27;8.60;52.50
32296;DHT22;18781;51.550;5.418;2023-04-06T06:46:52;8.70;52.60
32296;DHT22;18781;51.550;5.418;2023-04-06T06:49:18;8.70;52.50
32296;DHT22;18781;51.550;5.418;2023-04-06T06:51:44;8.70;52.50
32296;DHT22;18781;51.550;5.418;2023-04-06T06:54:12;8.80;52.40
32296;DHT22;18781;51.550;5.418;2023-04-06T06:56:38;8.90;52.70
32296;DHT22;18781;51.550;5.418;2023-04-06T06:59:04;8.90;52.50
32296;DHT22;18781;51.550;5.418;2023-04-06T07:01:32;8.90;52.40
32296;DHT22;18781;51.550;5.418;2023-04-06T07:03:58;8.90;52.40
32296;DHT22;18781;51.550;5.418;2023-04-06T07:06:24;9.00;52.40
32296;DHT22;18781;51.550;5.418;2023-04-06T07:08:49;9.00;52.30
32296;DHT22;18781;51.550;5.418;2023-04-06T07:11:15;9.00;52.20
32296;DHT22;18781;51.550;5.418;2023-04-06T07:13:41;9.10;52.40
32296;DHT22;18781;51.550;5.418;2023-04-06T07:16:07;9.10;52.20
32296;DHT22;18781;51.550;5.418;2023-04-06T07:18:33;9.10;52.10
32296;DHT22;18781;51.550;5.418;2023-04-06T07:20:58;9.20;52.20
32296;DHT22;18781;51.550;5.418;2023-04-06T07:23:24;9.20;52.10
32296;DHT22;18781;51.550;5.418;2023-04-06T07:25:50;9.30;52.00
32296;DHT22;18781;51.550;5.418;2023-04-06T07:28:17;9.30;52.10
32296;DHT22;18781;51.550;5.418;2023-04-06T07:30:43;9.30;52.10
32296;DHT22;18781;51.550;5.418;2023-04-06T07:33:09;9.30;52.20
32296;DHT22;18781;51.550;5.418;2023-04-06T07:35:34;9.40;52.10
32296;DHT22;18781;51.550;5.418;2023-04-06T07:38:02;9.40;52.00
32296;DHT22;18781;51.550;5.418;2023-04-06T07:40:27;9.50;52.00
32296;DHT22;18781;51.550;5.418;2023-04-06T07:42:53;9.50;52.20
32296;DHT22;18781;51.550;5.418;2023-04-06T07:45:19;9.50;52.10
32296;DHT22;18781;51.550;5.418;2023-04-06T07:47:45;9.60;52.40
32296;DHT22;18781;51.550;5.418;2023-04-06T07:50:11;9.60;51.80
32296;DHT22;18781;51.550;5.418;2023-04-06T07:52:38;9.60;51.70
32296;DHT22;18781;51.550;5.418;2023-04-06T07:55:03;9.70;51.90
32296;DHT22;18781;51.550;5.418;2023-04-06T07:57:29;9.70;52.00
32296;DHT22;18781;51.550;5.418;2023-04-06T07:59:55;9.70;51.80
32296;DHT22;18781;51.550;5.418;2023-04-06T08:02:21;9.80;51.70
32296;DHT22;18781;51.550;5.418;2023-04-06T08:04:47;9.80;51.70
32296;DHT22;18781;51.550;5.418;2023-04-06T08:07:12;9.80;51.70
32296;DHT22;18781;51.550;5.418;2023-04-06T08:09:38;9.80;51.70
32296;DHT22;18781;51.550;5.418;2023-04-06T08:12:03;9.80;51.80
32296;DHT22;18781;51.550;5.418;2023-04-06T08:14:29;9.90;51.80
32296;DHT22;18781;51.550;5.418;2023-04-06T08:16:55;9.90;51.80
32296;DHT22;18781;51.550;5.418;2023-04-06T08:19:21;9.90;52.00
32296;DHT22;18781;51.550;5.418;2023-04-06T08:21:46;10.00;52.00
32296;DHT22;18781;51.550;5.418;2023-04-06T08:24:13;10.00;52.00
32296;DHT22;18781;51.550;5.418;2023-04-06T08:26:39;10.10;52.00
32296;DHT22;18781;51.550;5.418;2023-04-06T08:29:04;10.10;52.10
32296;DHT22;18781;51.550;5.418;2023-04-06T08:31:33;10.10;52.10
32296;DHT22;18781;51.550;5.418;2023-04-06T08:33:59;10.20;52.20
32296;DHT22;18781;51.550;5.418;2023-04-06T08:36:24;10.30;52.30
32296;DHT22;18781;51.550;5.418;2023-04-06T08:38:50;10.30;52.10
32296;DHT22;18781;51.550;5.418;2023-04-06T08:41:16;10.40;52.10
32296;DHT22;18781;51.550;5.418;2023-04-06T08:43:52;10.40;52.20
32296;DHT22;18781;51.550;5.418;2023-04-06T08:46:21;10.50;52.50
32296;DHT22;18781;51.550;5.418;2023-04-06T08:48:47;10.50;52.30
32296;DHT22;18781;51.550;5.418;2023-04-06T08:51:15;10.60;52.30
32296;DHT22;18781;51.550;5.418;2023-04-06T08:53:41;10.70;52.30
32296;DHT22;18781;51.550;5.418;2023-04-06T08:56:07;10.70;52.20
32296;DHT22;18781;51.550;5.418;2023-04-06T08:58:35;10.70;52.30
32296;DHT22;18781;51.550;5.418;2023-04-06T09:01:06;10.80;52.40
32296;DHT22;18781;51.550;5.418;2023-04-06T09:03:36;10.90;52.60
32296;DHT22;18781;51.550;5.418;2023-04-06T09:06:02;10.90;52.50
32296;DHT22;18781;51.550;5.418;2023-04-06T09:08:29;11.00;52.40
32296;DHT22;18781;51.550;5.418;2023-04-06T09:10:55;11.10;52.50
32296;DHT22;18781;51.550;5.418;2023-04-06T09:13:21;11.10;52.50
32296;DHT22;18781;51.550;5.418;2023-04-06T09:15:46;11.10;52.60
32296;DHT22;18781;51.550;5.418;2023-04-06T09:18:12;11.20;52.80
32296;DHT22;18781;51.550;5.418;2023-04-06T09:20:38;11.30;52.90
32296;DHT22;18781;51.550;5.418;2023-04-06T09:23:03;11.30;53.00
32296;DHT22;18781;51.550;5.418;2023-04-06T09:25:29;11.40;53.10
32296;DHT22;18781;51.550;5.418;2023-04-06T09:28:04;11.50;53.10
32296;DHT22;18781;51.550;5.418;2023-04-06T09:30:30;11.60;53.30
32296;DHT22;18781;51.550;5.418;2023-04-06T09:32:57;11.60;53.20
32296;DHT22;18781;51.550;5.418;2023-04-06T09:35:23;11.70;53.40
32296;DHT22;18781;51.550;5.418;2023-04-06T09:37:50;11.70;53.50
32296;DHT22;18781;51.550;5.418;2023-04-06T09:40:17;11.80;53.80
32296;DHT22;18781;51.550;5.418;2023-04-06T09:42:48;11.80;53.80
32296;DHT22;18781;51.550;5.418;2023-04-06T09:45:14;11.90;54.20
32296;DHT22;18781;51.550;5.418;2023-04-06T09:47:43;11.90;54.20
32296;DHT22;18781;51.550;5.418;2023-04-06T09:50:11;12.00;54.20
32296;DHT22;18781;51.550;5.418;2023-04-06T09:52:48;12.00;54.10
32296;DHT22;18781;51.550;5.418;2023-04-06T09:55:32;12.10;54.10
32296;DHT22;18781;51.550;5.418;2023-04-06T09:58:19;12.10;54.10
32296;DHT22;18781;51.550;5.418;2023-04-06T10:01:06;12.20;54.30
32296;DHT22;18781;51.550;5.418;2023-04-06T10:03:45;12.20;54.30
32296;DHT22;18781;51.550;5.418;2023-04-06T10:06:14;12.20;54.90
32296;DHT22;18781;51.550;5.418;2023-04-06T10:08:42;12.20;54.60
32296;DHT22;18781;51.550;5.418;2023-04-06T10:11:11;12.20;55.00
32296;DHT22;18781;51.550;5.418;2023-04-06T10:13:37;12.20;55.00
32296;DHT22;18781;51.550;5.418;2023-04-06T10:16:03;12.30;55.00
32296;DHT22;18781;51.550;5.418;2023-04-06T10:18:29;12.30;55.20
32296;DHT22;18781;51.550;5.418;2023-04-06T10:21:07;12.30;55.30
32296;DHT22;18781;51.550;5.418;2023-04-06T10:23:37;12.30;55.60
32296;DHT22;18781;51.550;5.418;2023-04-06T10:26:05;12.30;55.70
32296;DHT22;18781;51.550;5.418;2023-04-06T10:28:33;12.30;55.90
32296;DHT22;18781;51.550;5.418;2023-04-06T10:31:01;12.30;56.40
32296;DHT22;18781;51.550;5.418;2023-04-06T10:33:27;12.30;56.20
32296;DHT22;18781;51.550;5.418;2023-04-06T10:35:53;12.30;56.90
32296;DHT22;18781;51.550;5.418;2023-04-06T10:38:20;12.30;56.50
32296;DHT22;18781;51.550;5.418;2023-04-06T10:40:47;12.30;56.50
32296;DHT22;18781;51.550;5.418;2023-04-06T10:43:18;12.30;56.70
32296;DHT22;18781;51.550;5.418;2023-04-06T10:45:44;12.30;56.90
32296;DHT22;18781;51.550;5.418;2023-04-06T10:48:18;12.30;56.80
32296;DHT22;18781;51.550;5.418;2023-04-06T10:50:46;12.30;57.00
32296;DHT22;18781;51.550;5.418;2023-04-06T10:53:24;12.30;57.10
32296;DHT22;18781;51.550;5.418;2023-04-06T10:55:55;12.40;57.40
32296;DHT22;18781;51.550;5.418;2023-04-06T10:58:24;12.30;57.70
32296;DHT22;18781;51.550;5.418;2023-04-06T11:00:51;12.30;57.70
32296;DHT22;18781;51.550;5.418;2023-04-06T11:03:17;12.30;57.80
32296;DHT22;18781;51.550;5.418;2023-04-06T11:05:47;12.30;58.00
32296;DHT22;18781;51.550;5.418;2023-04-06T11:08:26;12.30;58.20
32296;DHT22;18781;51.550;5.418;2023-04-06T11:10:52;12.30;58.90
32296;DHT22;18781;51.550;5.418;2023-04-06T11:13:17;12.30;57.20
32296;DHT22;18781;51.550;5.418;2023-04-06T11:15:43;12.30;57.90
32296;DHT22;18781;51.550;5.418;2023-04-06T11:18:09;12.30;57.90
32296;DHT22;18781;51.550;5.418;2023-04-06T11:20:36;12.30;58.30
32296;DHT22;18781;51.550;5.418;2023-04-06T11:23:02;12.30;58.60
32296;DHT22;18781;51.550;5.418;2023-04-06T11:25:28;12.30;58.90
32296;DHT22;18781;51.550;5.418;2023-04-06T11:27:57;12.30;59.10
32296;DHT22;18781;51.550;5.418;2023-04-06T11:30:22;12.30;58.90
32296;DHT22;18781;51.550;5.418;2023-04-06T11:32:48;12.30;59.10
32296;DHT22;18781;51.550;5.418;2023-04-06T11:35:23;12.30;59.20
32296;DHT22;18781;51.550;5.418;2023-04-06T11:37:52;12.20;60.00
32296;DHT22;18781;51.550;5.418;2023-04-06T11:40:22;12.20;59.70
32296;DHT22;18781;51.550;5.418;2023-04-06T11:42:57;12.30;60.50
32296;DHT22;18781;51.550;5.418;2023-04-06T11:45:23;12.30;60.70
32296;DHT22;18781;51.550;5.418;2023-04-06T11:47:59;12.30;60.00
32296;DHT22;18781;51.550;5.418;2023-04-06T11:50:31;12.30;61.10
32296;DHT22;18781;51.550;5.418;2023-04-06T11:52:59;12.30;60.80
32296;DHT22;18781;51.550;5.418;2023-04-06T11:55:26;12.40;60.80
32296;DHT22;18781;51.550;5.418;2023-04-06T11:57:52;12.40;60.80
32296;DHT22;18781;51.550;5.418;2023-04-06T12:00:18;12.50;61.00
32296;DHT22;18781;51.550;5.418;2023-04-06T12:02:48;12.50;61.10
32296;DHT22;18781;51.550;5.418;2023-04-06T12:05:13;12.50;61.40
32296;DHT22;18781;51.550;5.418;2023-04-06T12:07:39;12.60;61.30
32296;DHT22;18781;51.550;5.418;2023-04-06T12:10:05;12.60;61.60
32296;DHT22;18781;51.550;5.418;2023-04-06T12:12:31;12.60;61.70
32296;DHT22;18781;51.550;5.418;2023-04-06T12:14:57;12.60;61.40
32296;DHT22;18781;51.550;5.418;2023-04-06T12:17:23;12.70;61.40
32296;DHT22;18781;51.550;5.418;2023-04-06T12:19:48;12.70;61.70
32296;DHT22;18781;51.550;5.418;2023-04-06T12:22:14;12.70;61.40
32296;DHT22;18781;51.550;5.418;2023-04-06T12:24:40;12.70;61.10
32296;DHT22;18781;51.550;5.418;2023-04-06T12:27:06;12.70;61.10
32296;DHT22;18781;51.550;5.418;2023-04-06T12:29:32;12.70;61.10
32296;DHT22;18781;51.550;5.418;2023-04-06T12:31:57;12.60;60.80
32296;DHT22;18781;51.550;5.418;2023-04-06T12:34:23;12.60;61.20
32296;DHT22;18781;51.550;5.418;2023-04-06T12:36:49;12.60;61.30
32296;DHT22;18781;51.550;5.418;2023-04-06T12:39:15;12.60;61.10
32296;DHT22;18781;51.550;5.418;2023-04-06T12:41:41;12.60;61.40
32296;DHT22;18781;51.550;5.418;2023-04-06T12:44:06;12.60;61.40
32296;DHT22;18781;51.550;5.418;2023-04-06T12:46:32;12.60;61.50
32296;DHT22;18781;51.550;5.418;2023-04-06T12:48:58;12.50;61.50
32296;DHT22;18781;51.550;5.418;2023-04-06T12:51:26;12.60;62.00
32296;DHT22;18781;51.550;5.418;2023-04-06T12:53:53;12.50;62.10
32296;DHT22;18781;51.550;5.418;2023-04-06T12:56:18;12.50;62.00
32296;DHT22;18781;51.550;5.418;2023-04-06T12:58:44;12.50;62.70
32296;DHT22;18781;51.550;5.418;2023-04-06T13:01:10;12.50;62.20
32296;DHT22;18781;51.550;5.418;2023-04-06T13:03:38;12.50;62.30
32296;DHT22;18781;51.550;5.418;2023-04-06T13:06:04;12.50;62.50
32296;DHT22;18781;51.550;5.418;2023-04-06T13:08:30;12.50;62.60
32296;DHT22;18781;51.550;5.418;2023-04-06T13:10:55;12.50;62.60
32296;DHT22;18781;51.550;5.418;2023-04-06T13:13:25;12.50;62.70
32296;DHT22;18781;51.550;5.418;2023-04-06T13:15:52;12.50;62.70
32296;DHT22;18781;51.550;5.418;2023-04-06T13:18:18;12.50;62.80
32296;DHT22;18781;51.550;5.418;2023-04-06T13:20:43;12.40;62.70
32296;DHT22;18781;51.550;5.418;2023-04-06T13:23:09;12.40;62.90
32296;DHT22;18781;51.550;5.418;2023-04-06T13:25:36;12.40;62.80
32296;DHT22;18781;51.550;5.418;2023-04-06T13:28:01;12.40;63.10
32296;DHT22;18781;51.550;5.418;2023-04-06T13:30:27;12.40;63.20
32296;DHT22;18781;51.550;5.418;2023-04-06T13:32:52;12.40;63.20
32296;DHT22;18781;51.550;5.418;2023-04-06T13:35:18;12.40;63.40
32296;DHT22;18781;51.550;5.418;2023-04-06T13:37:44;12.40;63.40
32296;DHT22;18781;51.550;5.418;2023-04-06T13:40:10;12.30;63.40
32296;DHT22;18781;51.550;5.418;2023-04-06T13:42:36;12.30;63.70
32296;DHT22;18781;51.550;5.418;2023-04-06T13:45:03;12.30;63.80
32296;DHT22;18781;51.550;5.418;2023-04-06T13:47:29;12.30;64.00
32296;DHT22;18781;51.550;5.418;2023-04-06T13:49:55;12.30;63.90
32296;DHT22;18781;51.550;5.418;2023-04-06T13:52:21;12.30;64.00
32296;DHT22;18781;51.550;5.418;2023-04-06T13:54:47;12.30;64.20
32296;DHT22;18781;51.550;5.418;2023-04-06T13:57:12;12.30;64.10
32296;DHT22;18781;51.550;5.418;2023-04-06T13:59:38;12.30;64.20
32296;DHT22;18781;51.550;5.418;2023-04-06T14:02:05;12.30;64.40
32296;DHT22;18781;51.550;5.418;2023-04-06T14:04:33;12.30;64.40
32296;DHT22;18781;51.550;5.418;2023-04-06T14:07:00;12.30;64.40
32296;DHT22;18781;51.550;5.418;2023-04-06T14:09:27;12.30;64.60
32296;DHT22;18781;51.550;5.418;2023-04-06T14:11:53;12.30;64.80
32296;DHT22;18781;51.550;5.418;2023-04-06T14:14:19;12.30;64.80
32296;DHT22;18781;51.550;5.418;2023-04-06T14:16:45;12.30;64.90
32296;DHT22;18781;51.550;5.418;2023-04-06T14:19:11;12.30;65.10
32296;DHT22;18781;51.550;5.418;2023-04-06T14:21:40;12.20;65.10
32296;DHT22;18781;51.550;5.418;2023-04-06T14:24:06;12.20;65.30
32296;DHT22;18781;51.550;5.418;2023-04-06T14:26:32;12.20;65.30
32296;DHT22;18781;51.550;5.418;2023-04-06T14:29:02;12.20;65.50
32296;DHT22;18781;51.550;5.418;2023-04-06T14:31:27;12.20;65.80
32296;DHT22;18781;51.550;5.418;2023-04-06T14:33:54;12.10;65.40
32296;DHT22;18781;51.550;5.418;2023-04-06T14:36:19;12.10;65.80
32296;DHT22;18781;51.550;5.418;2023-04-06T14:38:45;12.10;65.60
32296;DHT22;18781;51.550;5.418;2023-04-06T14:41:23;12.10;65.90
32296;DHT22;18781;51.550;5.418;2023-04-06T14:43:49;12.10;66.30
32296;DHT22;18781;51.550;5.418;2023-04-06T14:46:15;12.10;66.10
32296;DHT22;18781;51.550;5.418;2023-04-06T14:48:43;12.10;66.20
32296;DHT22;18781;51.550;5.418;2023-04-06T14:51:09;12.00;66.20
32296;DHT22;18781;51.550;5.418;2023-04-06T14:53:34;12.10;66.30
32296;DHT22;18781;51.550;5.418;2023-04-06T14:56:00;12.10;66.40
32296;DHT22;18781;51.550;5.418;2023-04-06T14:58:25;12.10;66.60
32296;DHT22;18781;51.550;5.418;2023-04-06T15:01:01;12.00;66.40
32296;DHT22;18781;51.550;5.418;2023-04-06T15:03:28;12.00;67.00
32296;DHT22;18781;51.550;5.418;2023-04-06T15:05:54;12.00;66.50
32296;DHT22;18781;51.550;5.418;2023-04-06T15:08:21;12.00;66.70
32296;DHT22;18781;51.550;5.418;2023-04-06T15:10:50;12.00;66.70
32296;DHT22;18781;51.550;5.418;2023-04-06T15:13:16;12.00;66.90
32296;DHT22;18781;51.550;5.418;2023-04-06T15:15:43;12.00;67.40
32296;DHT22;18781;51.550;5.418;2023-04-06T15:18:10;12.00;67.20
32296;DHT22;18781;51.550;5.418;2023-04-06T15:20:36;11.90;67.10
32296;DHT22;18781;51.550;5.418;2023-04-06T15:23:02;11.90;67.10
32296;DHT22;18781;51.550;5.418;2023-04-06T15:25:29;12.00;67.30
32296;DHT22;18781;51.550;5.418;2023-04-06T15:27:55;11.90;67.20
32296;DHT22;18781;51.550;5.418;2023-04-06T15:30:20;11.90;67.40
32296;DHT22;18781;51.550;5.418;2023-04-06T15:32:58;12.00;67.70
32296;DHT22;18781;51.550;5.418;2023-04-06T15:35:26;11.90;68.50